sensor_id;sensor_type;location;lat;lon;timestamp;pressure;altitude;pressure_sealevel;temperature;humidity
64679;BME280;51094;53.864;27.676;2023-11-19T00:00:32;99838.13;;;-0.05;69.79
64679;BME280;51094;53.864;27.676;2023-11-19T00:02:59;99919.03;;;0.44;70.62
64679;BME280;51094;53.864;27.676;2023-11-19T00:05:26;99922.25;;;0.54;71.30
64679;BME280;51094;53.864;27.676;2023-11-19T00:07:54;99912.81;;;0.57;70.92
64679;BME280;51094;53.864;27.676;2023-11-19T00:10:21;99918.56;;;0.69;71.50
64679;BME280;51094;53.864;27.676;2023-11-19T00:12:49;99911.75;;;0.68;71.01
64679;BME280;51094;53.864;27.676;2023-11-19T00:15:17;99912.69;;;0.63;70.83
64679;BME280;51094;53.864;27.676;2023-11-19T00:17:48;99895.03;;;0.51;70.99
64679;BME280;51094;53.864;27.676;2023-11-19T00:20:17;99891.03;;;0.38;71.00
64679;BME280;51094;53.864;27.676;2023-11-19T00:22:45;99910.06;;;0.66;71.42
64679;BME280;51094;53.864;27.676;2023-11-19T00:25:20;99893.22;;;0.56;70.80
64679;BME280;51094;53.864;27.676;2023-11-19T00:27:48;99910.03;;;0.68;71.09
64679;BME280;51094;53.864;27.676;2023-11-19T00:30:15;99857.84;;;0.35;71.28
64679;BME280;51094;53.864;27.676;2023-11-19T00:32:43;99904.88;;;0.71;70.89
64679;BME280;51094;53.864;27.676;2023-11-19T00:35:10;99871.59;;;0.29;71.17
64679;BME280;51094;53.864;27.676;2023-11-19T00:37:37;99908.16;;;0.78;71.38
64679;BME280;51094;53.864;27.676;2023-11-19T00:40:05;99905.38;;;0.87;71.41
64679;BME280;51094;53.864;27.676;2023-11-19T00:42:33;99863.16;;;0.66;71.56
64679;BME280;51094;53.864;27.676;2023-11-19T00:45:00;99772.84;;;0.21;71.13
64679;BME280;51094;53.864;27.676;2023-11-19T00:47:28;99881.34;;;0.92;71.58
64679;BME280;51094;53.864;27.676;2023-11-19T00:49:55;99878.84;;;0.91;70.72
64679;BME280;51094;53.864;27.676;2023-11-19T00:52:25;99878.03;;;0.89;71.62
64679;BME280;51094;53.864;27.676;2023-11-19T00:54:52;99918.25;;;0.85;71.20
64679;BME280;51094;53.864;27.676;2023-11-19T00:57:20;99881.28;;;0.95;71.47
64679;BME280;51094;53.864;27.676;2023-11-19T00:59:47;99825.69;;;0.63;71.59
64679;BME280;51094;53.864;27.676;2023-11-19T01:02:14;99872.78;;;0.95;71.22
64679;BME280;51094;53.864;27.676;2023-11-19T01:04:42;99765.19;;;0.21;71.32
64679;BME280;51094;53.864;27.676;2023-11-19T01:07:09;99848.97;;;0.51;71.73
64679;BME280;51094;53.864;27.676;2023-11-19T01:09:42;99850.69;;;0.49;71.92
64679;BME280;51094;53.864;27.676;2023-11-19T01:12:09;99846.41;;;0.51;72.21
64679;BME280;51094;53.864;27.676;2023-11-19T01:14:39;99842.06;;;0.55;71.60
64679;BME280;51094;53.864;27.676;2023-11-19T01:17:06;99840.38;;;0.54;72.21
64679;BME280;51094;53.864;27.676;2023-11-19T01:19:34;99869.63;;;0.84;72.17
64679;BME280;51094;53.864;27.676;2023-11-19T01:22:01;99762.72;;;0.16;72.37
64679;BME280;51094;53.864;27.676;2023-11-19T01:24:28;99812.94;;;0.60;72.22
64679;BME280;51094;53.864;27.676;2023-11-19T01:26:58;99876.91;;;1.00;72.44
64679;BME280;51094;53.864;27.676;2023-11-19T01:29:26;99875.44;;;0.90;71.55
64679;BME280;51094;53.864;27.676;2023-11-19T01:31:53;99872.25;;;0.81;72.03
64679;BME280;51094;53.864;27.676;2023-11-19T01:34:21;99840.00;;;0.72;72.27
64679;BME280;51094;53.864;27.676;2023-11-19T01:36:48;99795.16;;;0.54;71.90
64679;BME280;51094;53.864;27.676;2023-11-19T01:39:16;99805.13;;;0.66;72.10
64679;BME280;51094;53.864;27.676;2023-11-19T01:41:43;99857.91;;;1.11;72.16
64679;BME280;51094;53.864;27.676;2023-11-19T01:44:10;99854.56;;;1.07;72.13
64679;BME280;51094;53.864;27.676;2023-11-19T01:46:42;99844.31;;;1.09;71.83
64679;BME280;51094;53.864;27.676;2023-11-19T01:49:11;99829.25;;;0.95;71.77
64679;BME280;51094;53.864;27.676;2023-11-19T01:51:39;99845.28;;;1.03;72.04
64679;BME280;51094;53.864;27.676;2023-11-19T01:54:07;99853.84;;;1.02;71.86
64679;BME280;51094;53.864;27.676;2023-11-19T01:56:35;99799.38;;;0.57;71.83
64679;BME280;51094;53.864;27.676;2023-11-19T01:59:02;99815.56;;;0.57;71.67
64679;BME280;51094;53.864;27.676;2023-11-19T02:01:30;99808.22;;;0.42;72.11
64679;BME280;51094;53.864;27.676;2023-11-19T02:03:59;99803.34;;;0.30;72.10
64679;BME280;51094;53.864;27.676;2023-11-19T02:06:27;99821.78;;;0.46;72.74
64679;BME280;51094;53.864;27.676;2023-11-19T02:08:55;99804.94;;;0.37;73.39
64679;BME280;51094;53.864;27.676;2023-11-19T02:11:22;99856.25;;;0.70;73.58
64679;BME280;51094;53.864;27.676;2023-11-19T02:13:49;99851.31;;;0.62;73.00
64679;BME280;51094;53.864;27.676;2023-11-19T02:16:16;99685.41;;;-0.38;73.40
64679;BME280;51094;53.864;27.676;2023-11-19T02:18:43;99850.34;;;0.68;73.10
64679;BME280;51094;53.864;27.676;2023-11-19T02:21:10;99852.25;;;0.56;73.31
64679;BME280;51094;53.864;27.676;2023-11-19T02:23:37;99722.78;;;-0.32;73.33
64679;BME280;51094;53.864;27.676;2023-11-19T02:28:43;99801.59;;;0.33;73.69
64679;BME280;51094;53.864;27.676;2023-11-19T02:31:10;99846.09;;;0.66;74.11
64679;BME280;51094;53.864;27.676;2023-11-19T02:33:38;99804.59;;;0.52;73.90
64679;BME280;51094;53.864;27.676;2023-11-19T02:36:06;99843.69;;;0.97;73.83
64679;BME280;51094;53.864;27.676;2023-11-19T02:38:34;99846.97;;;1.04;73.26
64679;BME280;51094;53.864;27.676;2023-11-19T02:41:06;99844.41;;;1.04;73.56
64679;BME280;51094;53.864;27.676;2023-11-19T02:43:34;99836.19;;;0.90;72.78
64679;BME280;51094;53.864;27.676;2023-11-19T02:46:02;99755.69;;;0.26;73.03
64679;BME280;51094;53.864;27.676;2023-11-19T02:48:41;99760.19;;;0.15;73.00
64679;BME280;51094;53.864;27.676;2023-11-19T02:51:10;99821.56;;;0.56;73.56
64679;BME280;51094;53.864;27.676;2023-11-19T02:53:37;99817.31;;;0.55;73.61
64679;BME280;51094;53.864;27.676;2023-11-19T02:56:05;99829.94;;;0.63;73.91
64679;BME280;51094;53.864;27.676;2023-11-19T02:58:38;99755.16;;;0.10;73.56
64679;BME280;51094;53.864;27.676;2023-11-19T03:01:05;99809.06;;;0.43;73.37
64679;BME280;51094;53.864;27.676;2023-11-19T03:03:53;99801.28;;;0.47;73.69
64679;BME280;51094;53.864;27.676;2023-11-19T03:06:21;99799.56;;;0.48;74.21
64679;BME280;51094;53.864;27.676;2023-11-19T03:08:48;99820.56;;;0.63;74.51
64679;BME280;51094;53.864;27.676;2023-11-19T03:11:15;99818.06;;;0.60;74.35
64679;BME280;51094;53.864;27.676;2023-11-19T03:13:42;99773.34;;;0.38;73.60
64679;BME280;51094;53.864;27.676;2023-11-19T03:16:09;99802.31;;;0.40;74.37
64679;BME280;51094;53.864;27.676;2023-11-19T03:18:38;99803.06;;;0.44;74.99
64679;BME280;51094;53.864;27.676;2023-11-19T03:21:06;99802.03;;;0.52;74.64
64679;BME280;51094;53.864;27.676;2023-11-19T03:23:35;99795.91;;;0.59;75.15
64679;BME280;51094;53.864;27.676;2023-11-19T03:26:03;99778.28;;;0.46;74.97
64679;BME280;51094;53.864;27.676;2023-11-19T03:28:32;99736.72;;;0.36;75.43
64679;BME280;51094;53.864;27.676;2023-11-19T03:30:59;99781.22;;;0.68;75.10
64679;BME280;51094;53.864;27.676;2023-11-19T03:33:26;99765.91;;;0.66;74.56
64679;BME280;51094;53.864;27.676;2023-11-19T03:35:56;99786.78;;;0.86;74.03
64679;BME280;51094;53.864;27.676;2023-11-19T03:38:24;99760.50;;;0.78;74.84
64679;BME280;51094;53.864;27.676;2023-11-19T03:40:51;99714.72;;;0.66;74.79
64679;BME280;51094;53.864;27.676;2023-11-19T03:43:18;99760.88;;;0.98;74.66
64679;BME280;51094;53.864;27.676;2023-11-19T03:45:48;99734.88;;;0.80;74.17
64679;BME280;51094;53.864;27.676;2023-11-19T03:48:16;99676.59;;;0.54;74.48
64679;BME280;51094;53.864;27.676;2023-11-19T03:50:43;99747.88;;;1.06;74.57
64679;BME280;51094;53.864;27.676;2023-11-19T03:53:12;99774.34;;;1.07;74.43
64679;BME280;51094;53.864;27.676;2023-11-19T03:55:39;99724.19;;;0.98;74.31
64679;BME280;51094;53.864;27.676;2023-11-19T03:58:06;99735.81;;;1.11;74.58
64679;BME280;51094;53.864;27.676;2023-11-19T04:00:33;99670.03;;;0.79;74.34
64679;BME280;51094;53.864;27.676;2023-11-19T04:03:00;99736.41;;;1.22;74.13
64679;BME280;51094;53.864;27.676;2023-11-19T04:05:27;99674.69;;;0.63;73.34
64679;BME280;51094;53.864;27.676;2023-11-19T04:07:54;99729.38;;;0.95;74.23
64679;BME280;51094;53.864;27.676;2023-11-19T04:10:21;99719.78;;;1.03;74.03
64679;BME280;51094;53.864;27.676;2023-11-19T04:12:49;99716.34;;;1.04;74.05
64679;BME280;51094;53.864;27.676;2023-11-19T04:15:17;99684.22;;;0.91;74.33
64679;BME280;51094;53.864;27.676;2023-11-19T04:17:44;99653.72;;;0.83;74.00
64679;BME280;51094;53.864;27.676;2023-11-19T04:20:14;99718.84;;;1.07;73.95
64679;BME280;51094;53.864;27.676;2023-11-19T04:22:41;99646.50;;;0.65;74.57
64679;BME280;51094;53.864;27.676;2023-11-19T04:25:08;99678.03;;;0.99;74.18
64679;BME280;51094;53.864;27.676;2023-11-19T04:27:36;99720.06;;;1.26;74.52
64679;BME280;51094;53.864;27.676;2023-11-19T04:30:03;99694.03;;;1.09;74.53
64679;BME280;51094;53.864;27.676;2023-11-19T04:32:31;99568.06;;;0.28;73.72
64679;BME280;51094;53.864;27.676;2023-11-19T04:34:58;99715.34;;;1.10;73.83
64679;BME280;51094;53.864;27.676;2023-11-19T04:37:25;99706.84;;;1.09;74.26
64679;BME280;51094;53.864;27.676;2023-11-19T04:39:52;99710.88;;;1.18;74.38
64679;BME280;51094;53.864;27.676;2023-11-19T04:42:22;99696.38;;;1.18;74.12
64679;BME280;51094;53.864;27.676;2023-11-19T04:44:49;99657.81;;;0.89;74.03
64679;BME280;51094;53.864;27.676;2023-11-19T04:47:16;99636.88;;;0.75;74.66
64679;BME280;51094;53.864;27.676;2023-11-19T04:49:44;99697.97;;;1.22;73.87
64679;BME280;51094;53.864;27.676;2023-11-19T04:52:11;99688.69;;;1.18;74.18
64679;BME280;51094;53.864;27.676;2023-11-19T04:54:43;99686.22;;;1.14;74.83
64679;BME280;51094;53.864;27.676;2023-11-19T04:57:11;99644.22;;;0.87;74.44
64679;BME280;51094;53.864;27.676;2023-11-19T04:59:38;99681.03;;;1.17;74.77
64679;BME280;51094;53.864;27.676;2023-11-19T05:02:05;99684.63;;;1.10;74.50
64679;BME280;51094;53.864;27.676;2023-11-19T05:04:32;99668.47;;;1.08;74.99
64679;BME280;51094;53.864;27.676;2023-11-19T05:06:59;99659.25;;;1.00;74.73
64679;BME280;51094;53.864;27.676;2023-11-19T05:09:26;99679.38;;;1.14;74.58
64679;BME280;51094;53.864;27.676;2023-11-19T05:11:53;99550.06;;;0.33;75.03
64679;BME280;51094;53.864;27.676;2023-11-19T05:14:20;99675.28;;;1.07;74.65
64679;BME280;51094;53.864;27.676;2023-11-19T05:16:48;99513.38;;;0.00;74.99
64679;BME280;51094;53.864;27.676;2023-11-19T05:19:15;99633.66;;;0.66;75.31
64679;BME280;51094;53.864;27.676;2023-11-19T05:21:43;99603.31;;;0.51;75.45
64679;BME280;51094;53.864;27.676;2023-11-19T05:24:10;99631.81;;;0.72;75.49
64679;BME280;51094;53.864;27.676;2023-11-19T05:26:38;99661.94;;;0.94;75.68
64679;BME280;51094;53.864;27.676;2023-11-19T05:29:06;99655.88;;;0.98;75.23
64679;BME280;51094;53.864;27.676;2023-11-19T05:31:32;99662.88;;;0.92;76.02
64679;BME280;51094;53.864;27.676;2023-11-19T05:34:03;99662.88;;;0.92;75.76
64679;BME280;51094;53.864;27.676;2023-11-19T05:36:30;99673.91;;;0.94;76.42
64679;BME280;51094;53.864;27.676;2023-11-19T05:38:57;99691.22;;;0.86;76.56
64679;BME280;51094;53.864;27.676;2023-11-19T05:41:24;99671.59;;;0.85;76.23
64679;BME280;51094;53.864;27.676;2023-11-19T05:43:51;99624.28;;;0.65;76.71
64679;BME280;51094;53.864;27.676;2023-11-19T05:46:19;99662.72;;;0.98;76.13
64679;BME280;51094;53.864;27.676;2023-11-19T05:48:47;99530.72;;;0.21;76.97
64679;BME280;51094;53.864;27.676;2023-11-19T05:51:14;99657.25;;;0.79;76.46
64679;BME280;51094;53.864;27.676;2023-11-19T05:53:43;99598.63;;;0.35;76.87
64679;BME280;51094;53.864;27.676;2023-11-19T05:56:10;99669.28;;;0.76;77.41
64679;BME280;51094;53.864;27.676;2023-11-19T05:58:37;99607.50;;;0.54;77.61
64679;BME280;51094;53.864;27.676;2023-11-19T06:01:06;99647.63;;;0.87;77.50
64679;BME280;51094;53.864;27.676;2023-11-19T06:03:35;99627.44;;;0.77;77.57
64679;BME280;51094;53.864;27.676;2023-11-19T06:06:02;99627.44;;;0.77;77.22
64679;BME280;51094;53.864;27.676;2023-11-19T06:08:29;99672.69;;;1.09;77.19
64679;BME280;51094;53.864;27.676;2023-11-19T06:10:57;99668.25;;;0.83;76.96
64679;BME280;51094;53.864;27.676;2023-11-19T06:13:24;99655.75;;;0.71;77.72
64679;BME280;51094;53.864;27.676;2023-11-19T06:15:52;99659.84;;;0.78;77.78
64679;BME280;51094;53.864;27.676;2023-11-19T06:18:19;99667.38;;;0.84;77.97
64679;BME280;51094;53.864;27.676;2023-11-19T06:20:47;99657.94;;;0.86;78.69
64679;BME280;51094;53.864;27.676;2023-11-19T06:23:14;99635.19;;;0.74;78.69
64679;BME280;51094;53.864;27.676;2023-11-19T06:25:41;99615.66;;;0.70;78.38
64679;BME280;51094;53.864;27.676;2023-11-19T06:28:09;99656.56;;;0.71;77.75
64679;BME280;51094;53.864;27.676;2023-11-19T06:30:36;99584.81;;;0.42;78.03
64679;BME280;51094;53.864;27.676;2023-11-19T06:33:03;99583.03;;;0.44;78.43
64679;BME280;51094;53.864;27.676;2023-11-19T06:35:30;99664.81;;;0.84;78.65
64679;BME280;51094;53.864;27.676;2023-11-19T06:38:03;99659.28;;;0.65;78.44
64679;BME280;51094;53.864;27.676;2023-11-19T06:40:34;99607.09;;;0.37;79.28
64679;BME280;51094;53.864;27.676;2023-11-19T06:43:03;99657.63;;;0.62;79.34
64679;BME280;51094;53.864;27.676;2023-11-19T06:45:31;99665.53;;;0.53;79.71
64679;BME280;51094;53.864;27.676;2023-11-19T06:47:58;99661.25;;;0.54;80.09
64679;BME280;51094;53.864;27.676;2023-11-19T06:50:27;99666.44;;;0.51;80.21
64679;BME280;51094;53.864;27.676;2023-11-19T06:52:54;99661.44;;;0.46;80.78
64679;BME280;51094;53.864;27.676;2023-11-19T06:55:21;99553.09;;;-0.24;80.40
64679;BME280;51094;53.864;27.676;2023-11-19T06:57:48;99604.19;;;0.15;80.93
64679;BME280;51094;53.864;27.676;2023-11-19T07:00:15;99630.97;;;0.37;81.02
64679;BME280;51094;53.864;27.676;2023-11-19T07:02:44;99670.28;;;0.69;80.23
64679;BME280;51094;53.864;27.676;2023-11-19T07:05:11;99584.81;;;0.05;79.95
64679;BME280;51094;53.864;27.676;2023-11-19T07:07:39;99668.38;;;0.77;80.70
64679;BME280;51094;53.864;27.676;2023-11-19T07:10:07;99664.03;;;0.80;80.33
64679;BME280;51094;53.864;27.676;2023-11-19T07:12:36;99663.06;;;0.86;80.34
64679;BME280;51094;53.864;27.676;2023-11-19T07:15:04;99663.56;;;0.98;80.34
64679;BME280;51094;53.864;27.676;2023-11-19T07:17:32;99635.63;;;0.89;80.54
64679;BME280;51094;53.864;27.676;2023-11-19T07:19:59;99665.69;;;1.15;79.30
64679;BME280;51094;53.864;27.676;2023-11-19T07:22:26;99654.72;;;1.10;79.58
64679;BME280;51094;53.864;27.676;2023-11-19T07:24:53;99641.59;;;0.90;79.09
64679;BME280;51094;53.864;27.676;2023-11-19T07:27:20;99602.94;;;0.66;79.55
64679;BME280;51094;53.864;27.676;2023-11-19T07:29:47;99654.16;;;0.99;79.58
64679;BME280;51094;53.864;27.676;2023-11-19T07:32:14;99431.94;;;-0.88;79.12
64679;BME280;51094;53.864;27.676;2023-11-19T07:34:42;99641.59;;;0.90;79.57
64679;BME280;51094;53.864;27.676;2023-11-19T07:37:09;99645.72;;;0.95;79.46
64679;BME280;51094;53.864;27.676;2023-11-19T07:39:36;99655.41;;;0.84;78.71
64679;BME280;51094;53.864;27.676;2023-11-19T07:42:04;99635.66;;;0.88;79.16
64679;BME280;51094;53.864;27.676;2023-11-19T07:44:32;99647.50;;;0.92;79.12
64679;BME280;51094;53.864;27.676;2023-11-19T07:46:59;99639.28;;;0.81;79.44
64679;BME280;51094;53.864;27.676;2023-11-19T07:49:27;99639.16;;;0.85;79.63
64679;BME280;51094;53.864;27.676;2023-11-19T07:51:54;99634.75;;;0.90;79.40
64679;BME280;51094;53.864;27.676;2023-11-19T07:54:21;99649.03;;;0.99;79.62
64679;BME280;51094;53.864;27.676;2023-11-19T07:56:48;99521.25;;;0.25;79.35
64679;BME280;51094;53.864;27.676;2023-11-19T07:59:17;99643.16;;;0.95;78.90
64679;BME280;51094;53.864;27.676;2023-11-19T08:01:43;99644.56;;;1.07;79.51
64679;BME280;51094;53.864;27.676;2023-11-19T08:04:10;99585.53;;;0.81;79.36
64679;BME280;51094;53.864;27.676;2023-11-19T08:06:38;99640.25;;;1.09;78.28
64679;BME280;51094;53.864;27.676;2023-11-19T08:09:05;99629.50;;;0.95;78.55
64679;BME280;51094;53.864;27.676;2023-11-19T08:11:33;99634.34;;;1.06;78.46
64679;BME280;51094;53.864;27.676;2023-11-19T08:14:00;99639.41;;;1.09;78.62
64679;BME280;51094;53.864;27.676;2023-11-19T08:16:27;99635.88;;;1.13;78.83
64679;BME280;51094;53.864;27.676;2023-11-19T08:18:54;99636.00;;;1.08;78.29
64679;BME280;51094;53.864;27.676;2023-11-19T08:21:21;99641.16;;;1.07;77.89
64679;BME280;51094;53.864;27.676;2023-11-19T08:23:49;99467.38;;;-0.02;78.43
64679;BME280;51094;53.864;27.676;2023-11-19T08:26:16;99633.59;;;1.02;77.99
64679;BME280;51094;53.864;27.676;2023-11-19T08:28:47;99631.13;;;0.99;77.55
64679;BME280;51094;53.864;27.676;2023-11-19T08:31:14;99624.44;;;0.93;77.92
64679;BME280;51094;53.864;27.676;2023-11-19T08:33:41;99572.56;;;0.53;77.68
64679;BME280;51094;53.864;27.676;2023-11-19T08:36:08;99607.69;;;0.82;78.55
64679;BME280;51094;53.864;27.676;2023-11-19T08:38:35;99625.84;;;1.05;78.55
64679;BME280;51094;53.864;27.676;2023-11-19T08:41:02;99542.47;;;0.62;77.88
64679;BME280;51094;53.864;27.676;2023-11-19T08:43:29;99614.31;;;1.21;78.65
64679;BME280;51094;53.864;27.676;2023-11-19T08:45:58;99607.50;;;1.20;77.56
64679;BME280;51094;53.864;27.676;2023-11-19T08:48:25;99578.25;;;0.96;77.38
64679;BME280;51094;53.864;27.676;2023-11-19T08:50:53;99598.75;;;0.96;77.56
64679;BME280;51094;53.864;27.676;2023-11-19T08:53:19;99609.13;;;0.90;76.89
64679;BME280;51094;53.864;27.676;2023-11-19T08:55:47;99584.66;;;0.82;77.53
64679;BME280;51094;53.864;27.676;2023-11-19T08:58:14;99594.53;;;0.94;77.48
64679;BME280;51094;53.864;27.676;2023-11-19T09:00:41;99596.22;;;0.95;77.42
64679;BME280;51094;53.864;27.676;2023-11-19T09:03:08;99468.34;;;0.27;78.06
64679;BME280;51094;53.864;27.676;2023-11-19T09:05:36;99542.84;;;0.81;77.55
64679;BME280;51094;53.864;27.676;2023-11-19T09:08:04;99564.66;;;0.94;77.22
64679;BME280;51094;53.864;27.676;2023-11-19T09:10:31;99587.25;;;1.11;77.32
64679;BME280;51094;53.864;27.676;2023-11-19T09:12:58;99476.41;;;0.44;77.20
64679;BME280;51094;53.864;27.676;2023-11-19T09:15:25;99569.41;;;1.08;77.20
64679;BME280;51094;53.864;27.676;2023-11-19T09:17:52;99551.13;;;0.89;77.39
64679;BME280;51094;53.864;27.676;2023-11-19T09:20:22;99577.34;;;0.99;76.68
64679;BME280;51094;53.864;27.676;2023-11-19T09:22:49;99576.56;;;0.95;76.99
64679;BME280;51094;53.864;27.676;2023-11-19T09:25:16;99559.72;;;0.87;77.58
64679;BME280;51094;53.864;27.676;2023-11-19T09:27:44;99568.63;;;1.06;77.38
64679;BME280;51094;53.864;27.676;2023-11-19T09:30:11;99555.09;;;1.01;76.89
64679;BME280;51094;53.864;27.676;2023-11-19T09:32:39;99564.22;;;1.11;77.14
64679;BME280;51094;53.864;27.676;2023-11-19T09:35:08;99560.00;;;1.09;76.97
64679;BME280;51094;53.864;27.676;2023-11-19T09:37:35;99515.59;;;0.79;76.38
64679;BME280;51094;53.864;27.676;2023-11-19T09:40:05;99567.00;;;1.02;77.09
64679;BME280;51094;53.864;27.676;2023-11-19T09:42:45;99528.38;;;0.80;76.98
64679;BME280;51094;53.864;27.676;2023-11-19T09:45:16;99585.41;;;0.85;76.63
64679;BME280;51094;53.864;27.676;2023-11-19T09:47:46;99585.69;;;1.06;76.80
64679;BME280;51094;53.864;27.676;2023-11-19T09:50:19;99477.69;;;0.60;76.61
64679;BME280;51094;53.864;27.676;2023-11-19T09:52:47;99497.28;;;0.92;77.16
64679;BME280;51094;53.864;27.676;2023-11-19T09:55:14;99509.09;;;0.98;75.99
64679;BME280;51094;53.864;27.676;2023-11-19T09:57:41;99538.38;;;1.19;76.20
64679;BME280;51094;53.864;27.676;2023-11-19T10:00:10;99539.16;;;1.22;76.62
64679;BME280;51094;53.864;27.676;2023-11-19T10:02:39;99523.84;;;1.19;76.24
64679;BME280;51094;53.864;27.676;2023-11-19T10:05:07;99535.78;;;1.20;76.28
64679;BME280;51094;53.864;27.676;2023-11-19T10:07:34;99509.78;;;1.03;76.01
64679;BME280;51094;53.864;27.676;2023-11-19T10:10:02;99526.72;;;1.09;76.34
64679;BME280;51094;53.864;27.676;2023-11-19T10:12:32;99471.50;;;0.69;75.95
64679;BME280;51094;53.864;27.676;2023-11-19T10:14:59;99509.25;;;0.92;75.99
64679;BME280;51094;53.864;27.676;2023-11-19T10:17:33;99515.03;;;0.98;76.37
64679;BME280;51094;53.864;27.676;2023-11-19T10:20:01;99516.72;;;0.99;76.64
64679;BME280;51094;53.864;27.676;2023-11-19T10:22:29;99515.47;;;1.14;76.96
64679;BME280;51094;53.864;27.676;2023-11-19T10:24:55;99486.88;;;0.98;76.16
64679;BME280;51094;53.864;27.676;2023-11-19T10:27:25;99504.50;;;1.09;75.91
64679;BME280;51094;53.864;27.676;2023-11-19T10:29:53;99506.22;;;1.09;76.17
64679;BME280;51094;53.864;27.676;2023-11-19T10:32:20;99495.06;;;1.11;76.84
64679;BME280;51094;53.864;27.676;2023-11-19T10:35:04;99497.97;;;0.99;76.08
64679;BME280;51094;53.864;27.676;2023-11-19T10:37:34;99477.09;;;0.83;75.92
64679;BME280;51094;53.864;27.676;2023-11-19T10:40:04;99487.00;;;0.94;76.24
64679;BME280;51094;53.864;27.676;2023-11-19T10:42:37;99491.78;;;1.06;76.69
64679;BME280;51094;53.864;27.676;2023-11-19T10:45:04;99493.47;;;1.07;76.22
64679;BME280;51094;53.864;27.676;2023-11-19T10:47:32;99493.63;;;1.01;75.16
64679;BME280;51094;53.864;27.676;2023-11-19T10:50:05;99487.66;;;1.00;76.29
64679;BME280;51094;53.864;27.676;2023-11-19T10:52:33;99478.34;;;0.98;75.55
64679;BME280;51094;53.864;27.676;2023-11-19T10:55:03;99480.75;;;1.04;75.82
64679;BME280;51094;53.864;27.676;2023-11-19T10:57:36;99431.63;;;0.60;75.37
64679;BME280;51094;53.864;27.676;2023-11-19T11:00:04;99448.50;;;0.68;75.57
64679;BME280;51094;53.864;27.676;2023-11-19T11:02:41;99427.16;;;0.69;76.24
64679;BME280;51094;53.864;27.676;2023-11-19T11:05:12;99417.69;;;0.71;75.87
64679;BME280;51094;53.864;27.676;2023-11-19T11:07:43;99494.88;;;1.17;76.11
64679;BME280;51094;53.864;27.676;2023-11-19T11:10:11;99454.28;;;1.04;75.50
64679;BME280;51094;53.864;27.676;2023-11-19T11:12:40;99463.97;;;1.23;75.57
64679;BME280;51094;53.864;27.676;2023-11-19T11:15:11;99461.50;;;1.20;75.36
64679;BME280;51094;53.864;27.676;2023-11-19T11:17:43;99451.75;;;1.31;75.44
64679;BME280;51094;53.864;27.676;2023-11-19T11:20:11;99412.22;;;1.12;75.38
64679;BME280;51094;53.864;27.676;2023-11-19T11:22:57;99374.22;;;0.98;74.79
64679;BME280;51094;53.864;27.676;2023-11-19T11:26:00;99450.06;;;1.30;73.71
64679;BME280;51094;53.864;27.676;2023-11-19T11:28:35;99444.94;;;1.30;74.68
64679;BME280;51094;53.864;27.676;2023-11-19T11:39:28;99427.53;;;1.42;73.46
64679;BME280;51094;53.864;27.676;2023-11-19T11:50:10;99412.56;;;1.29;74.24
64679;BME280;51094;53.864;27.676;2023-11-19T11:57:55;99357.41;;;0.90;74.00
64679;BME280;51094;53.864;27.676;2023-11-19T12:00:26;99425.56;;;1.23;74.00
64679;BME280;51094;53.864;27.676;2023-11-19T12:02:59;99411.75;;;1.27;74.09
64679;BME280;51094;53.864;27.676;2023-11-19T12:05:27;99387.50;;;1.11;74.11
64679;BME280;51094;53.864;27.676;2023-11-19T12:08:04;99394.47;;;1.06;74.20
64679;BME280;51094;53.864;27.676;2023-11-19T12:10:50;99401.84;;;1.17;74.41
64679;BME280;51094;53.864;27.676;2023-11-19T12:13:18;99194.09;;;-0.11;73.70
64679;BME280;51094;53.864;27.676;2023-11-19T12:18:31;99417.28;;;1.14;73.87
64679;BME280;51094;53.864;27.676;2023-11-19T12:20:59;99396.81;;;1.14;74.28
64679;BME280;51094;53.864;27.676;2023-11-19T12:23:30;99400.03;;;1.20;74.46
64679;BME280;51094;53.864;27.676;2023-11-19T12:25:58;99352.97;;;0.95;74.20
64679;BME280;51094;53.864;27.676;2023-11-19T12:28:26;99373.25;;;1.03;73.83
64679;BME280;51094;53.864;27.676;2023-11-19T12:31:07;99388.28;;;1.13;74.33
64679;BME280;51094;53.864;27.676;2023-11-19T12:33:36;99341.19;;;0.89;73.78
64679;BME280;51094;53.864;27.676;2023-11-19T12:36:05;99375.03;;;0.99;73.64
64679;BME280;51094;53.864;27.676;2023-11-19T12:38:32;99371.66;;;0.98;74.32
64679;BME280;51094;53.864;27.676;2023-11-19T12:41:06;99343.25;;;0.78;73.81
64679;BME280;51094;53.864;27.676;2023-11-19T12:43:34;99390.31;;;1.02;73.69
64679;BME280;51094;53.864;27.676;2023-11-19T12:46:23;99362.59;;;0.87;74.49
64679;BME280;51094;53.864;27.676;2023-11-19T12:48:52;99389.41;;;1.05;74.57
64679;BME280;51094;53.864;27.676;2023-11-19T12:51:22;99380.88;;;1.04;73.55
64679;BME280;51094;53.864;27.676;2023-11-19T12:53:52;99382.56;;;1.05;74.53
64679;BME280;51094;53.864;27.676;2023-11-19T12:56:21;99336.19;;;0.86;74.46
64679;BME280;51094;53.864;27.676;2023-11-19T12:58:49;99287.25;;;0.68;74.03
64679;BME280;51094;53.864;27.676;2023-11-19T13:01:18;99377.19;;;1.13;73.55
64679;BME280;51094;53.864;27.676;2023-11-19T13:03:47;99376.53;;;1.06;74.25
64679;BME280;51094;53.864;27.676;2023-11-19T13:06:16;99380.59;;;1.13;73.96
64679;BME280;51094;53.864;27.676;2023-11-19T13:08:45;99379.09;;;1.06;73.62
64679;BME280;51094;53.864;27.676;2023-11-19T13:11:13;99332.09;;;0.81;73.83
64679;BME280;51094;53.864;27.676;2023-11-19T13:14:19;99369.19;;;0.95;73.83
64679;BME280;51094;53.864;27.676;2023-11-19T13:16:46;99322.66;;;0.53;73.88
64679;BME280;51094;53.864;27.676;2023-11-19T13:19:14;99369.47;;;0.86;73.97
64679;BME280;51094;53.864;27.676;2023-11-19T13:21:43;99336.56;;;0.74;74.31
64679;BME280;51094;53.864;27.676;2023-11-19T13:24:13;99363.41;;;0.89;74.29
64679;BME280;51094;53.864;27.676;2023-11-19T13:26:40;99365.13;;;0.88;74.62
64679;BME280;51094;53.864;27.676;2023-11-19T13:29:07;99360.69;;;0.93;74.75
64679;BME280;51094;53.864;27.676;2023-11-19T13:31:35;99357.25;;;0.94;74.73
64679;BME280;51094;53.864;27.676;2023-11-19T13:34:02;99324.28;;;0.85;74.08